createdAt,value
2023-03-28T00:04:54.656Z,-3.37
2023-03-28T00:09:58.387Z,-2.15
2023-03-28T00:15:04.461Z,2.25
2023-03-28T00:20:10.753Z,4.74
2023-03-28T00:25:14.469Z,4.74
2023-03-28T00:30:17.665Z,2.07
2023-03-28T00:35:21.083Z,0.38
2023-03-28T00:40:26.623Z,-0.71
2023-03-28T00:45:29.959Z,-1.49
2023-03-28T00:50:42.719Z,-2.07
2023-03-28T00:56:17.839Z,-2.50
2023-03-28T01:01:21.332Z,-2.80
2023-03-28T01:06:26.391Z,-2.95
2023-03-28T01:11:30.445Z,-3.01
2023-03-28T01:16:34.079Z,-3.03
2023-03-28T01:22:41.263Z,-3.03
2023-03-28T01:28:20.006Z,-3.01
2023-03-28T01:33:53.943Z,-2.99
2023-03-28T01:39:25.407Z,-1.24
2023-03-28T01:45:11.847Z,3.36
2023-03-28T01:50:44.229Z,5.71
2023-03-28T01:55:58.467Z,5.30
2023-03-28T02:01:23.438Z,2.77
2023-03-28T02:06:30.127Z,1.26
2023-03-28T02:11:35.722Z,0.30
2023-03-28T02:16:42.215Z,-0.42
2023-03-28T02:22:01.392Z,-0.94
2023-03-28T02:27:08.640Z,-1.31
2023-03-28T02:32:11.760Z,-1.61
2023-03-28T02:37:59.607Z,-1.83
2023-03-28T02:43:45.825Z,-1.95
2023-03-28T02:49:35.071Z,-2.01
2023-03-28T02:55:05.664Z,-2.04
2023-03-28T03:00:17.434Z,-0.38
2023-03-28T03:05:22.242Z,3.94
2023-03-28T03:10:25.327Z,6.04
2023-03-28T03:15:31.138Z,6.81
2023-03-28T03:20:34.442Z,4.47
2023-03-28T03:25:38.146Z,2.55
2023-03-28T03:30:41.110Z,1.38
2023-03-28T03:35:46.011Z,0.55
2023-03-28T03:40:49.179Z,-0.05
2023-03-28T03:45:52.551Z,-0.45
2023-03-28T03:50:56.208Z,-0.77
2023-03-28T03:56:04.010Z,-0.99
2023-03-28T04:01:09.996Z,-1.15
2023-03-28T04:06:13.114Z,-1.26
2023-03-28T04:11:16.231Z,-1.32
2023-03-28T04:16:21.183Z,-1.34
2023-03-28T04:21:31.156Z,-0.17
2023-03-28T04:26:38.193Z,4.17
2023-03-28T04:31:41.662Z,6.68
2023-03-28T04:36:45.259Z,6.80
2023-03-28T04:41:48.461Z,4.33
2023-03-28T04:46:51.908Z,2.84
2023-03-28T04:51:54.989Z,1.89
2023-03-28T04:56:58.016Z,1.18
2023-03-28T05:02:01.157Z,0.66
2023-03-28T05:07:04.837Z,0.27
2023-03-28T05:12:08.038Z,0.01
2023-03-28T05:17:11.137Z,-0.15
2023-03-28T05:22:14.343Z,-0.26
2023-03-28T05:27:18.268Z,-0.32
2023-03-28T05:32:21.841Z,-0.07
2023-03-28T05:37:24.895Z,4.04
2023-03-28T05:42:36.301Z,6.89
2023-03-28T05:47:39.847Z,4.98
2023-03-28T05:52:43.013Z,2.49
2023-03-28T05:57:46.330Z,1.81
2023-03-28T06:02:55.025Z,4.78
2023-03-28T06:07:58.167Z,5.18
2023-03-28T06:13:01.582Z,2.72
2023-03-28T06:18:04.986Z,1.26
2023-03-28T06:23:08.213Z,1.49
2023-03-28T06:28:11.428Z,4.74
2023-03-28T06:33:14.523Z,6.59
2023-03-28T06:38:17.675Z,5.09
2023-03-28T06:43:20.942Z,2.68
2023-03-28T06:48:30.953Z,1.31
2023-03-28T06:53:36.229Z,2.68
2023-03-28T06:58:39.881Z,5.45
2023-03-28T07:03:43.109Z,4.06
2023-03-28T07:08:46.812Z,2.05
2023-03-28T07:13:50.848Z,0.95
2023-03-28T07:18:54.057Z,1.40
2023-03-28T07:23:57.198Z,4.82
2023-03-28T07:29:00.694Z,6.80
2023-03-28T07:34:03.964Z,5.42
2023-03-28T07:39:07.090Z,3.18
2023-03-28T07:44:10.232Z,3.38
2023-03-28T07:49:15.571Z,6.65
2023-03-28T07:54:19.387Z,6.67
2023-03-28T07:59:22.492Z,4.56
2023-03-28T08:04:26.108Z,3.45
2023-03-28T08:09:29.141Z,3.57
2023-03-28T08:14:32.316Z,5.76
2023-03-28T08:19:35.530Z,4.71
2023-03-28T08:24:40.471Z,3.13
2023-03-28T08:29:43.786Z,2.71
2023-03-28T08:34:47.220Z,2.34
2023-03-28T08:39:50.631Z,2.51
2023-03-28T08:45:21.664Z,3.61
2023-03-28T08:50:39.015Z,2.44
2023-03-28T08:55:43.479Z,1.73
2023-03-28T09:00:47.889Z,2.94
2023-03-28T09:06:18.276Z,4.16
2023-03-28T09:11:55.242Z,2.52
2023-03-28T09:17:24.181Z,1.80
2023-03-28T09:22:45.929Z,4.15
2023-03-28T09:28:20.733Z,4.02
2023-03-28T09:33:32.663Z,1.94
2023-03-28T09:38:46.626Z,1.20
2023-03-28T09:44:00.814Z,1.74
2023-03-28T09:49:04.169Z,4.04
2023-03-28T09:54:09.052Z,3.20
2023-03-28T09:59:34.790Z,2.29
2023-03-28T10:04:39.592Z,1.54
2023-03-28T10:09:57.045Z,2.52
2023-03-28T10:15:01.311Z,3.90
2023-03-28T10:20:18.088Z,2.78
2023-03-28T10:25:37.891Z,2.15
2023-03-28T10:30:43.769Z,1.78
2023-03-28T10:35:58.906Z,1.45
2023-03-28T10:41:11.929Z,0.98
2023-03-28T10:46:35.633Z,0.84
2023-03-28T10:51:42.799Z,2.13
2023-03-28T10:57:10.223Z,3.91
2023-03-28T11:02:28.450Z,2.62
2023-03-28T11:07:53.984Z,2.00
2023-03-28T11:13:53.113Z,2.02
2023-03-28T11:20:11.088Z,1.86
2023-03-28T11:25:34.860Z,1.16
2023-03-28T11:30:41.322Z,1.68
2023-03-28T11:35:53.109Z,3.98
2023-03-28T11:41:02.220Z,2.93
2023-03-28T11:46:20.996Z,2.06
2023-03-28T11:51:33.314Z,3.70
2023-03-28T11:57:00.099Z,3.80
2023-03-28T12:02:29.001Z,2.25
2023-03-28T12:07:43.747Z,1.66
2023-03-28T12:13:13.278Z,1.79
2023-03-28T12:18:43.337Z,1.76
2023-03-28T12:24:25.950Z,1.52
2023-03-28T12:29:44.889Z,1.85
2023-03-28T12:35:06.046Z,2.23
2023-03-28T12:40:30.865Z,1.95
2023-03-28T12:45:43.139Z,1.59
2023-03-28T12:51:02.202Z,1.86
2023-03-28T12:56:12.530Z,2.05
2023-03-28T13:01:41.574Z,1.54
2023-03-28T13:07:18.205Z,1.17
2023-03-28T13:12:37.856Z,0.94
2023-03-28T13:18:09.239Z,1.02
2023-03-28T13:23:15.668Z,1.40
2023-03-28T13:28:18.807Z,1.27
2023-03-28T13:34:00.048Z,2.35
2023-03-28T13:39:25.460Z,4.32
2023-03-28T13:44:41.661Z,4.15
2023-03-28T13:50:19.982Z,2.51
2023-03-28T13:55:26.471Z,1.49
2023-03-28T14:00:31.424Z,1.62
2023-03-28T14:05:35.752Z,4.07
2023-03-28T14:10:43.793Z,3.62
2023-03-28T14:15:48.452Z,2.16
2023-03-28T14:20:56.364Z,1.47
2023-03-28T14:26:08.761Z,1.47
2023-03-28T14:31:30.741Z,4.21
2023-03-28T14:36:38.055Z,4.52
2023-03-28T14:41:43.873Z,3.82
2023-03-28T14:46:49.672Z,3.30
2023-03-28T14:51:57.193Z,3.01
2023-03-28T14:57:04.106Z,2.47
2023-03-28T15:02:22.433Z,1.60
2023-03-28T15:07:28.751Z,0.84
2023-03-28T15:12:53.545Z,1.96
2023-03-28T15:18:04.664Z,2.78
2023-03-28T15:23:17.378Z,1.38
2023-03-28T15:28:20.852Z,0.79
2023-03-28T15:33:28.484Z,2.31
2023-03-28T15:38:31.567Z,2.43
2023-03-28T15:43:53.003Z,1.32
2023-03-28T15:49:06.526Z,1.18
2023-03-28T15:54:28.129Z,3.02
2023-03-28T15:59:43.944Z,1.85
2023-03-28T16:05:06.922Z,0.96
2023-03-28T16:10:13.455Z,2.47
2023-03-28T16:15:17.423Z,1.82
2023-03-28T16:20:25.487Z,1.83
2023-03-28T16:25:29.440Z,3.64
2023-03-28T16:30:42.551Z,4.29
2023-03-28T16:35:46.577Z,2.37
2023-03-28T16:40:50.336Z,1.25
2023-03-28T16:45:53.475Z,3.10
2023-03-28T16:50:58.951Z,3.89
2023-03-28T16:56:03.961Z,1.94
2023-03-28T17:01:11.782Z,1.00
2023-03-28T17:06:17.005Z,2.85
2023-03-28T17:11:22.022Z,4.09
2023-03-28T17:16:25.647Z,2.67
2023-03-28T17:21:29.423Z,1.12
2023-03-28T17:26:32.722Z,0.62
2023-03-28T17:31:36.209Z,2.71
2023-03-28T17:36:41.496Z,4.30
2023-03-28T17:41:44.724Z,5.41
2023-03-28T17:46:48.165Z,4.15
2023-03-28T17:51:52.325Z,2.13
2023-03-28T17:56:55.916Z,0.99
2023-03-28T18:01:59.313Z,1.08
2023-03-28T18:07:02.485Z,3.38
2023-03-28T18:12:20.357Z,3.45
2023-03-28T18:17:23.800Z,1.61
2023-03-28T18:22:27.692Z,0.57
2023-03-28T18:27:30.785Z,0.04
2023-03-28T18:32:34.864Z,1.07
2023-03-28T18:37:38.227Z,3.64
2023-03-28T18:42:41.693Z,5.07
2023-03-28T18:47:44.792Z,5.12
2023-03-28T18:52:48.099Z,3.01
2023-03-28T18:57:52.835Z,1.54
2023-03-28T19:02:56.744Z,0.65
2023-03-28T19:07:59.953Z,0.05
2023-03-28T19:13:03.159Z,-0.34
2023-03-28T19:18:07.251Z,-0.63
2023-03-28T19:23:10.582Z,-0.10
2023-03-28T19:28:13.697Z,2.26
2023-03-28T19:33:17.069Z,1.52
2023-03-28T19:38:22.256Z,0.41
2023-03-28T19:43:25.997Z,-0.23
2023-03-28T19:48:29.084Z,-0.63
2023-03-28T19:53:32.206Z,-0.89
2023-03-28T19:58:35.602Z,-1.08
2023-03-28T20:03:38.945Z,-1.23
2023-03-28T20:08:43.048Z,-1.36
2023-03-28T20:13:46.457Z,-1.45
2023-03-28T20:18:49.566Z,-1.51
2023-03-28T20:23:52.987Z,-1.56
2023-03-28T20:28:59.574Z,-1.60
2023-03-28T20:34:03.499Z,-1.65
2023-03-28T20:39:07.226Z,-1.70
2023-03-28T20:44:10.329Z,-1.74
2023-03-28T20:49:13.534Z,-1.79
2023-03-28T20:54:16.757Z,-1.82
2023-03-28T20:59:20.562Z,-1.86
2023-03-28T21:04:24.085Z,-1.89
2023-03-28T21:09:27.627Z,-1.93
2023-03-28T21:14:30.899Z,-2.00
2023-03-28T21:19:35.038Z,-2.05
2023-03-28T21:24:38.239Z,-2.12
2023-03-28T21:29:42.166Z,-2.17
2023-03-28T21:34:45.677Z,-2.23
2023-03-28T21:39:48.825Z,-2.28
2023-03-28T21:44:52.202Z,-2.33
2023-03-28T21:49:55.310Z,-2.38
2023-03-28T21:54:58.851Z,-2.45
2023-03-28T22:00:01.997Z,-1.66
2023-03-28T22:05:10.624Z,1.34
2023-03-28T22:10:26.644Z,3.41
2023-03-28T22:15:31.886Z,3.58
2023-03-28T22:20:38.523Z,1.60
2023-03-28T22:25:42.780Z,0.32
2023-03-28T22:30:46.308Z,-0.56
2023-03-28T22:35:50.242Z,-1.23
2023-03-28T22:40:53.409Z,-1.73
2023-03-28T22:45:56.849Z,-2.14
2023-03-28T22:51:01.782Z,-2.47
2023-03-28T22:56:06.837Z,-2.74
2023-03-28T23:01:09.937Z,-2.95
2023-03-28T23:06:13.470Z,-3.14
2023-03-28T23:11:16.868Z,-3.31
2023-03-28T23:16:20.057Z,-3.44
2023-03-28T23:21:24.582Z,-3.55
2023-03-28T23:26:27.721Z,-2.57
2023-03-28T23:31:31.356Z,0.51
2023-03-28T23:36:34.740Z,2.32
2023-03-28T23:41:37.957Z,3.49
2023-03-28T23:46:41.161Z,3.38
2023-03-28T23:51:44.462Z,1.24
2023-03-28T23:56:49.364Z,-0.23
